sensor_id;sensor_type;location;lat;lon;timestamp;pressure;altitude;pressure_sealevel;temperature;humidity
72558;BME280;60583;50.094;8.748;2023-02-11T00:01:47;102567.75;;;1.85;82.46
72558;BME280;60583;50.094;8.748;2023-02-11T00:04:12;102557.13;;;1.86;82.66
72558;BME280;60583;50.094;8.748;2023-02-11T00:06:38;102566.88;;;2.00;82.35
72558;BME280;60583;50.094;8.748;2023-02-11T00:09:04;102560.84;;;1.98;81.69
72558;BME280;60583;50.094;8.748;2023-02-11T00:11:30;102526.66;;;1.68;82.83
72558;BME280;60583;50.094;8.748;2023-02-11T00:13:57;102540.44;;;1.87;82.58
72558;BME280;60583;50.094;8.748;2023-02-11T00:16:23;102561.06;;;2.09;82.27
72558;BME280;60583;50.094;8.748;2023-02-11T00:18:49;102529.91;;;1.87;82.09
72558;BME280;60583;50.094;8.748;2023-02-11T00:21:20;102562.91;;;1.93;82.56
72558;BME280;60583;50.094;8.748;2023-02-11T00:23:46;102565.94;;;2.01;82.55
72558;BME280;60583;50.094;8.748;2023-02-11T00:26:19;102549.03;;;2.05;82.07
72558;BME280;60583;50.094;8.748;2023-02-11T00:28:46;102561.72;;;2.13;81.90
72558;BME280;60583;50.094;8.748;2023-02-11T00:31:13;102520.97;;;1.76;82.56
72558;BME280;60583;50.094;8.748;2023-02-11T00:33:39;102559.09;;;2.13;82.31
72558;BME280;60583;50.094;8.748;2023-02-11T00:36:22;102538.16;;;2.11;82.21
72558;BME280;60583;50.094;8.748;2023-02-11T00:38:49;102545.31;;;2.23;81.97
72558;BME280;60583;50.094;8.748;2023-02-11T00:41:15;102509.66;;;2.04;81.90
72558;BME280;60583;50.094;8.748;2023-02-11T00:43:41;102517.63;;;2.02;82.39
72558;BME280;60583;50.094;8.748;2023-02-11T00:46:07;102535.41;;;2.13;82.33
72558;BME280;60583;50.094;8.748;2023-02-11T00:48:33;102481.53;;;1.90;82.80
72558;BME280;60583;50.094;8.748;2023-02-11T00:50:59;102503.28;;;2.08;82.19
72558;BME280;60583;50.094;8.748;2023-02-11T00:53:24;102525.69;;;2.29;82.26
72558;BME280;60583;50.094;8.748;2023-02-11T00:55:50;102481.84;;;2.00;82.17
72558;BME280;60583;50.094;8.748;2023-02-11T00:58:16;102522.47;;;2.24;82.13
72558;BME280;60583;50.094;8.748;2023-02-11T01:00:41;102484.19;;;2.04;82.52
72558;BME280;60583;50.094;8.748;2023-02-11T01:03:06;102520.88;;;2.35;81.84
72558;BME280;60583;50.094;8.748;2023-02-11T01:05:32;102505.84;;;2.23;82.36
72558;BME280;60583;50.094;8.748;2023-02-11T01:07:57;102522.94;;;2.30;82.13
72558;BME280;60583;50.094;8.748;2023-02-11T01:10:23;102530.38;;;2.38;81.70
72558;BME280;60583;50.094;8.748;2023-02-11T01:12:49;102526.81;;;2.39;82.40
72558;BME280;60583;50.094;8.748;2023-02-11T01:15:16;102525.38;;;2.47;81.55
72558;BME280;60583;50.094;8.748;2023-02-11T01:17:42;102509.59;;;2.47;81.76
72558;BME280;60583;50.094;8.748;2023-02-11T01:20:13;102508.56;;;2.36;82.47
72558;BME280;60583;50.094;8.748;2023-02-11T01:22:39;102512.34;;;2.46;82.29
72558;BME280;60583;50.094;8.748;2023-02-11T01:25:06;102467.09;;;2.25;82.09
72558;BME280;60583;50.094;8.748;2023-02-11T01:27:32;102497.00;;;2.52;81.78
72558;BME280;60583;50.094;8.748;2023-02-11T01:29:57;102467.19;;;2.38;81.84
72558;BME280;60583;50.094;8.748;2023-02-11T01:32:23;102506.97;;;2.62;81.67
72558;BME280;60583;50.094;8.748;2023-02-11T01:34:48;102506.97;;;2.62;81.88
72558;BME280;60583;50.094;8.748;2023-02-11T01:37:14;102498.69;;;2.53;81.77
72558;BME280;60583;50.094;8.748;2023-02-11T01:39:39;102490.88;;;2.52;81.80
72558;BME280;60583;50.094;8.748;2023-02-11T01:42:05;102507.16;;;2.58;81.89
72558;BME280;60583;50.094;8.748;2023-02-11T01:44:34;102494.75;;;2.61;82.24
72558;BME280;60583;50.094;8.748;2023-02-11T01:47:00;102490.97;;;2.65;81.52
72558;BME280;60583;50.094;8.748;2023-02-11T01:49:50;102477.44;;;2.56;81.66
72558;BME280;60583;50.094;8.748;2023-02-11T01:52:38;102449.78;;;2.49;81.66
72558;BME280;60583;50.094;8.748;2023-02-11T01:55:08;102455.91;;;2.50;81.40
72558;BME280;60583;50.094;8.748;2023-02-11T01:57:56;102455.97;;;2.63;81.23
72558;BME280;60583;50.094;8.748;2023-02-11T02:00:26;102455.06;;;2.64;81.03
72558;BME280;60583;50.094;8.748;2023-02-11T02:03:05;102469.25;;;2.61;81.78
72558;BME280;60583;50.094;8.748;2023-02-11T02:05:40;102453.16;;;2.66;81.31
72558;BME280;60583;50.094;8.748;2023-02-11T02:08:22;102454.75;;;2.68;81.40
72558;BME280;60583;50.094;8.748;2023-02-11T02:10:51;102452.03;;;2.70;81.70
72558;BME280;60583;50.094;8.748;2023-02-11T02:13:24;102445.72;;;2.72;81.67
72558;BME280;60583;50.094;8.748;2023-02-11T02:15:54;102431.53;;;2.61;81.83
72558;BME280;60583;50.094;8.748;2023-02-11T02:21:21;102430.69;;;2.60;81.95
72558;BME280;60583;50.094;8.748;2023-02-11T02:24:13;102437.25;;;2.67;82.18
72558;BME280;60583;50.094;8.748;2023-02-11T02:32:37;102441.16;;;2.62;82.41
72558;BME280;60583;50.094;8.748;2023-02-11T02:35:13;102442.44;;;2.69;81.97
72558;BME280;60583;50.094;8.748;2023-02-11T02:37:49;102422.91;;;2.58;82.03
72558;BME280;60583;50.094;8.748;2023-02-11T02:40:22;102398.28;;;2.45;82.01
72558;BME280;60583;50.094;8.748;2023-02-11T02:42:50;102429.47;;;2.66;81.71
72558;BME280;60583;50.094;8.748;2023-02-11T02:45:17;102439.44;;;2.61;82.26
72558;BME280;60583;50.094;8.748;2023-02-11T02:47:43;102426.75;;;2.53;82.05
72558;BME280;60583;50.094;8.748;2023-02-11T02:50:10;102444.81;;;2.59;82.04
72558;BME280;60583;50.094;8.748;2023-02-11T02:53:00;102447.16;;;2.64;82.58
72558;BME280;60583;50.094;8.748;2023-02-11T03:04:52;102440.38;;;2.59;82.42
72558;BME280;60583;50.094;8.748;2023-02-11T03:07:33;102438.88;;;2.55;82.47
72558;BME280;60583;50.094;8.748;2023-02-11T03:10:09;102438.78;;;2.57;82.34
72558;BME280;60583;50.094;8.748;2023-02-11T03:12:38;102456.38;;;2.56;83.00
72558;BME280;60583;50.094;8.748;2023-02-11T03:15:05;102451.13;;;2.56;82.62
72558;BME280;60583;50.094;8.748;2023-02-11T03:17:33;102445.63;;;2.59;82.01
72558;BME280;60583;50.094;8.748;2023-02-11T03:20:02;102439.34;;;2.62;82.29
72558;BME280;60583;50.094;8.748;2023-02-11T03:22:37;102425.91;;;2.52;82.57
72558;BME280;60583;50.094;8.748;2023-02-11T03:25:04;102432.47;;;2.59;82.74
72558;BME280;60583;50.094;8.748;2023-02-11T03:27:38;102357.72;;;2.07;82.87
72558;BME280;60583;50.094;8.748;2023-02-11T03:30:54;102322.91;;;2.04;81.96
72558;BME280;60583;50.094;8.748;2023-02-11T03:33:26;102423.66;;;2.61;82.33
72558;BME280;60583;50.094;8.748;2023-02-11T03:35:57;102391.31;;;2.44;82.54
72558;BME280;60583;50.094;8.748;2023-02-11T03:38:40;102301.28;;;1.84;83.23
72558;BME280;60583;50.094;8.748;2023-02-11T03:41:09;102348.88;;;2.36;82.59
72558;BME280;60583;50.094;8.748;2023-02-11T03:43:43;102388.31;;;2.50;82.99
72558;BME280;60583;50.094;8.748;2023-02-11T03:46:10;102392.53;;;2.53;82.49
72558;BME280;60583;50.094;8.748;2023-02-11T03:48:42;102362.91;;;2.49;82.29
72558;BME280;60583;50.094;8.748;2023-02-11T03:51:11;102360.50;;;2.46;82.72
72558;BME280;60583;50.094;8.748;2023-02-11T03:53:39;102357.09;;;2.44;82.98
72558;BME280;60583;50.094;8.748;2023-02-11T03:56:09;102333.25;;;2.33;82.92
72558;BME280;60583;50.094;8.748;2023-02-11T03:58:36;102356.06;;;2.47;82.74
72558;BME280;60583;50.094;8.748;2023-02-11T04:01:02;102304.75;;;2.13;82.88
72558;BME280;60583;50.094;8.748;2023-02-11T04:03:29;102351.75;;;2.32;83.23
72558;BME280;60583;50.094;8.748;2023-02-11T04:05:57;102352.81;;;2.29;83.61
72558;BME280;60583;50.094;8.748;2023-02-11T04:08:22;102364.28;;;2.28;83.41
72558;BME280;60583;50.094;8.748;2023-02-11T04:10:48;102374.78;;;2.42;82.85
72558;BME280;60583;50.094;8.748;2023-02-11T04:13:13;102368.59;;;2.43;83.13
72558;BME280;60583;50.094;8.748;2023-02-11T04:15:39;102381.75;;;2.43;82.76
72558;BME280;60583;50.094;8.748;2023-02-11T04:18:04;102340.78;;;2.25;83.11
72558;BME280;60583;50.094;8.748;2023-02-11T04:20:30;102341.59;;;2.40;82.02
72558;BME280;60583;50.094;8.748;2023-02-11T04:22:55;102389.03;;;2.67;82.22
72558;BME280;60583;50.094;8.748;2023-02-11T04:25:21;102324.06;;;2.26;82.25
72558;BME280;60583;50.094;8.748;2023-02-11T04:27:46;102397.69;;;2.69;81.85
72558;BME280;60583;50.094;8.748;2023-02-11T04:30:12;102381.16;;;2.52;82.45
72558;BME280;60583;50.094;8.748;2023-02-11T04:32:37;102411.94;;;2.79;81.47
72558;BME280;60583;50.094;8.748;2023-02-11T04:35:04;102395.41;;;2.77;80.93
72558;BME280;60583;50.094;8.748;2023-02-11T04:37:29;102394.09;;;2.70;81.69
72558;BME280;60583;50.094;8.748;2023-02-11T04:39:55;102406.00;;;2.75;81.78
72558;BME280;60583;50.094;8.748;2023-02-11T04:42:20;102391.06;;;2.76;81.44
72558;BME280;60583;50.094;8.748;2023-02-11T04:44:46;102380.66;;;2.74;81.46
72558;BME280;60583;50.094;8.748;2023-02-11T04:47:11;102364.78;;;2.62;81.43
72558;BME280;60583;50.094;8.748;2023-02-11T04:49:39;102377.25;;;2.72;81.69
72558;BME280;60583;50.094;8.748;2023-02-11T04:52:04;102373.97;;;2.69;81.65
72558;BME280;60583;50.094;8.748;2023-02-11T04:54:30;102323.84;;;2.43;81.35
72558;BME280;60583;50.094;8.748;2023-02-11T04:56:55;102350.66;;;2.63;81.65
72558;BME280;60583;50.094;8.748;2023-02-11T04:59:21;102357.22;;;2.70;81.91
72558;BME280;60583;50.094;8.748;2023-02-11T05:01:46;102363.44;;;2.69;81.50
72558;BME280;60583;50.094;8.748;2023-02-11T05:04:12;102353.53;;;2.72;81.53
72558;BME280;60583;50.094;8.748;2023-02-11T05:06:38;102314.97;;;2.44;81.82
72558;BME280;60583;50.094;8.748;2023-02-11T05:09:04;102359.66;;;2.73;81.49
72558;BME280;60583;50.094;8.748;2023-02-11T05:11:29;102313.84;;;2.48;81.23
72558;BME280;60583;50.094;8.748;2023-02-11T05:13:55;102350.34;;;2.67;81.23
72558;BME280;60583;50.094;8.748;2023-02-11T05:16:20;102277.25;;;2.31;81.44
72558;BME280;60583;50.094;8.748;2023-02-11T05:18:46;102358.59;;;2.75;81.77
72558;BME280;60583;50.094;8.748;2023-02-11T05:21:17;102284.50;;;2.28;81.59
72558;BME280;60583;50.094;8.748;2023-02-11T05:23:43;102360.63;;;2.72;81.66
72558;BME280;60583;50.094;8.748;2023-02-11T05:26:10;102366.97;;;2.82;81.66
72558;BME280;60583;50.094;8.748;2023-02-11T05:28:36;102384.25;;;2.86;81.26
72558;BME280;60583;50.094;8.748;2023-02-11T05:31:01;102297.91;;;2.37;81.21
72558;BME280;60583;50.094;8.748;2023-02-11T05:33:27;102331.66;;;2.72;80.57
72558;BME280;60583;50.094;8.748;2023-02-11T05:36:01;102366.72;;;2.99;80.80
72558;BME280;60583;50.094;8.748;2023-02-11T05:38:27;102370.91;;;2.89;81.15
72558;BME280;60583;50.094;8.748;2023-02-11T05:40:52;102361.47;;;2.85;80.70
72558;BME280;60583;50.094;8.748;2023-02-11T05:43:18;102342.13;;;2.86;80.39
72558;BME280;60583;50.094;8.748;2023-02-11T05:45:43;102327.69;;;2.65;81.39
72558;BME280;60583;50.094;8.748;2023-02-11T05:48:09;102335.03;;;2.74;80.45
72558;BME280;60583;50.094;8.748;2023-02-11T05:50:34;102380.28;;;2.93;80.68
72558;BME280;60583;50.094;8.748;2023-02-11T05:53:00;102368.44;;;2.86;80.84
72558;BME280;60583;50.094;8.748;2023-02-11T05:55:25;102352.66;;;2.86;80.12
72558;BME280;60583;50.094;8.748;2023-02-11T05:57:51;102388.97;;;3.07;80.29
72558;BME280;60583;50.094;8.748;2023-02-11T06:00:17;102391.16;;;3.01;80.47
72558;BME280;60583;50.094;8.748;2023-02-11T06:02:42;102359.84;;;2.96;80.31
72558;BME280;60583;50.094;8.748;2023-02-11T06:05:08;102373.25;;;3.06;79.96
72558;BME280;60583;50.094;8.748;2023-02-11T06:07:33;102359.19;;;2.93;80.69
72558;BME280;60583;50.094;8.748;2023-02-11T06:09:59;102345.59;;;2.86;80.50
72558;BME280;60583;50.094;8.748;2023-02-11T06:12:25;102353.94;;;2.93;80.53
72558;BME280;60583;50.094;8.748;2023-02-11T06:14:51;102372.28;;;2.94;80.73
72558;BME280;60583;50.094;8.748;2023-02-11T06:17:17;102354.75;;;2.81;80.71
72558;BME280;60583;50.094;8.748;2023-02-11T06:19:43;102374.81;;;2.96;80.88
72558;BME280;60583;50.094;8.748;2023-02-11T06:22:09;102364.88;;;2.87;80.83
72558;BME280;60583;50.094;8.748;2023-02-11T06:24:34;102384.47;;;3.09;80.13
72558;BME280;60583;50.094;8.748;2023-02-11T06:27:02;102352.25;;;2.92;80.29
72558;BME280;60583;50.094;8.748;2023-02-11T06:29:28;102253.56;;;2.31;80.60
72558;BME280;60583;50.094;8.748;2023-02-11T06:31:54;102373.91;;;3.09;80.27
72558;BME280;60583;50.094;8.748;2023-02-11T06:34:19;102349.94;;;3.00;80.06
72558;BME280;60583;50.094;8.748;2023-02-11T06:36:44;102321.34;;;2.81;79.86
72558;BME280;60583;50.094;8.748;2023-02-11T06:39:11;102355.88;;;3.03;80.06
72558;BME280;60583;50.094;8.748;2023-02-11T06:41:37;102362.41;;;3.10;79.84
72558;BME280;60583;50.094;8.748;2023-02-11T06:44:03;102356.03;;;2.88;80.47
72558;BME280;60583;50.094;8.748;2023-02-11T06:46:29;102361.16;;;2.77;80.73
72558;BME280;60583;50.094;8.748;2023-02-11T06:48:54;102377.28;;;2.85;80.78
72558;BME280;60583;50.094;8.748;2023-02-11T06:51:20;102356.22;;;2.85;80.87
72558;BME280;60583;50.094;8.748;2023-02-11T06:53:45;102361.47;;;2.85;80.77
72558;BME280;60583;50.094;8.748;2023-02-11T06:56:22;102323.59;;;2.61;80.95
72558;BME280;60583;50.094;8.748;2023-02-11T06:58:54;102343.50;;;2.65;81.32
72558;BME280;60583;50.094;8.748;2023-02-11T07:01:20;102303.72;;;2.42;80.98
72558;BME280;60583;50.094;8.748;2023-02-11T07:03:46;102362.28;;;2.73;81.62
72558;BME280;60583;50.094;8.748;2023-02-11T07:06:14;102346.78;;;2.68;81.39
72558;BME280;60583;50.094;8.748;2023-02-11T07:08:40;102336.56;;;2.64;81.81
72558;BME280;60583;50.094;8.748;2023-02-11T07:11:11;102346.50;;;2.73;81.62
72558;BME280;60583;50.094;8.748;2023-02-11T07:13:37;102348.38;;;2.71;81.68
72558;BME280;60583;50.094;8.748;2023-02-11T07:16:07;102352.34;;;2.64;81.78
72558;BME280;60583;50.094;8.748;2023-02-11T07:18:33;102354.31;;;2.74;81.42
72558;BME280;60583;50.094;8.748;2023-02-11T07:21:06;102339.09;;;2.65;81.64
72558;BME280;60583;50.094;8.748;2023-02-11T07:23:32;102331.91;;;2.67;81.07
72558;BME280;60583;50.094;8.748;2023-02-11T07:26:04;102328.47;;;2.67;81.19
72558;BME280;60583;50.094;8.748;2023-02-11T07:28:30;102354.13;;;2.90;81.00
72558;BME280;60583;50.094;8.748;2023-02-11T07:30:56;102357.03;;;2.99;80.71
72558;BME280;60583;50.094;8.748;2023-02-11T07:33:21;102366.81;;;3.10;80.69
72558;BME280;60583;50.094;8.748;2023-02-11T07:35:47;102363.91;;;3.14;80.00
72558;BME280;60583;50.094;8.748;2023-02-11T07:38:12;102345.97;;;3.07;79.59
72558;BME280;60583;50.094;8.748;2023-02-11T07:40:38;102370.34;;;3.23;80.01
72558;BME280;60583;50.094;8.748;2023-02-11T07:43:03;102366.25;;;3.19;79.98
72558;BME280;60583;50.094;8.748;2023-02-11T07:45:29;102320.03;;;3.01;79.95
72558;BME280;60583;50.094;8.748;2023-02-11T07:47:55;102373.00;;;3.36;79.22
72558;BME280;60583;50.094;8.748;2023-02-11T07:50:20;102384.22;;;3.52;79.38
72558;BME280;60583;50.094;8.748;2023-02-11T07:52:46;102391.06;;;3.54;78.82
72558;BME280;60583;50.094;8.748;2023-02-11T07:55:11;102368.19;;;3.42;78.95
72558;BME280;60583;50.094;8.748;2023-02-11T07:57:37;102390.56;;;3.62;78.47
72558;BME280;60583;50.094;8.748;2023-02-11T08:00:03;102391.19;;;3.65;78.07
72558;BME280;60583;50.094;8.748;2023-02-11T08:02:29;102406.28;;;3.88;77.51
72558;BME280;60583;50.094;8.748;2023-02-11T08:04:55;102336.56;;;3.55;77.64
72558;BME280;60583;50.094;8.748;2023-02-11T08:07:20;102414.63;;;4.08;76.76
72558;BME280;60583;50.094;8.748;2023-02-11T08:09:46;102350.03;;;3.75;76.07
72558;BME280;60583;50.094;8.748;2023-02-11T08:12:11;102398.78;;;4.08;76.70
72558;BME280;60583;50.094;8.748;2023-02-11T08:14:37;102406.91;;;4.05;76.77
72558;BME280;60583;50.094;8.748;2023-02-11T08:17:02;102401.72;;;4.03;76.69
72558;BME280;60583;50.094;8.748;2023-02-11T08:19:28;102395.19;;;4.09;76.51
72558;BME280;60583;50.094;8.748;2023-02-11T08:21:54;102409.63;;;4.16;76.32
72558;BME280;60583;50.094;8.748;2023-02-11T08:24:20;102402.16;;;4.10;76.25
72558;BME280;60583;50.094;8.748;2023-02-11T08:26:45;102341.38;;;3.73;76.11
72558;BME280;60583;50.094;8.748;2023-02-11T08:29:12;102414.81;;;4.17;76.35
72558;BME280;60583;50.094;8.748;2023-02-11T08:31:40;102390.56;;;4.00;75.72
72558;BME280;60583;50.094;8.748;2023-02-11T08:34:07;102421.78;;;4.06;76.11
72558;BME280;60583;50.094;8.748;2023-02-11T08:36:35;102370.94;;;3.66;76.25
72558;BME280;60583;50.094;8.748;2023-02-11T08:39:04;102445.53;;;4.18;76.50
72558;BME280;60583;50.094;8.748;2023-02-11T08:41:31;102421.38;;;4.12;76.12
72558;BME280;60583;50.094;8.748;2023-02-11T08:43:57;102451.56;;;4.33;76.27
72558;BME280;60583;50.094;8.748;2023-02-11T08:46:22;102445.66;;;4.29;75.37
72558;BME280;60583;50.094;8.748;2023-02-11T08:48:48;102412.91;;;4.19;75.59
72558;BME280;60583;50.094;8.748;2023-02-11T08:51:20;102451.66;;;4.44;75.55
72558;BME280;60583;50.094;8.748;2023-02-11T08:53:45;102383.69;;;4.10;75.26
72558;BME280;60583;50.094;8.748;2023-02-11T08:56:11;102455.31;;;4.54;75.16
72558;BME280;60583;50.094;8.748;2023-02-11T08:58:38;102455.97;;;4.58;75.12
72558;BME280;60583;50.094;8.748;2023-02-11T09:01:14;102445.63;;;4.42;75.06
72558;BME280;60583;50.094;8.748;2023-02-11T09:03:40;102441.72;;;4.47;75.12
72558;BME280;60583;50.094;8.748;2023-02-11T09:06:07;102447.63;;;4.51;75.51
72558;BME280;60583;50.094;8.748;2023-02-11T09:08:37;102418.38;;;4.29;75.18
72558;BME280;60583;50.094;8.748;2023-02-11T09:11:04;102453.88;;;4.50;75.50
72558;BME280;60583;50.094;8.748;2023-02-11T09:13:31;102448.16;;;4.43;75.19
72558;BME280;60583;50.094;8.748;2023-02-11T09:15:57;102460.78;;;4.64;74.75
72558;BME280;60583;50.094;8.748;2023-02-11T09:18:27;102446.75;;;4.63;74.76
72558;BME280;60583;50.094;8.748;2023-02-11T09:21:00;102457.59;;;4.71;74.59
72558;BME280;60583;50.094;8.748;2023-02-11T09:23:26;102453.69;;;4.77;74.59
72558;BME280;60583;50.094;8.748;2023-02-11T09:25:51;102455.44;;;4.89;73.85
72558;BME280;60583;50.094;8.748;2023-02-11T09:28:16;102461.44;;;5.03;73.45
72558;BME280;60583;50.094;8.748;2023-02-11T09:30:42;102453.50;;;5.03;73.95
72558;BME280;60583;50.094;8.748;2023-02-11T09:33:07;102465.09;;;5.13;72.84
72558;BME280;60583;50.094;8.748;2023-02-11T09:35:33;102473.13;;;5.12;73.42
72558;BME280;60583;50.094;8.748;2023-02-11T09:37:59;102470.47;;;5.12;73.95
72558;BME280;60583;50.094;8.748;2023-02-11T09:40:24;102480.50;;;5.20;73.52
72558;BME280;60583;50.094;8.748;2023-02-11T09:42:58;102476.34;;;5.28;73.04
72558;BME280;60583;50.094;8.748;2023-02-11T09:45:29;102483.47;;;5.39;72.93
72558;BME280;60583;50.094;8.748;2023-02-11T09:48:12;102467.91;;;5.23;73.01
72558;BME280;60583;50.094;8.748;2023-02-11T09:50:41;102440.25;;;5.27;72.55
72558;BME280;60583;50.094;8.748;2023-02-11T09:53:17;102431.56;;;5.49;72.32
72558;BME280;60583;50.094;8.748;2023-02-11T09:55:50;102439.59;;;5.71;71.44
72558;BME280;60583;50.094;8.748;2023-02-11T09:58:49;102483.09;;;5.91;71.50
72558;BME280;60583;50.094;8.748;2023-02-11T10:01:37;102465.34;;;5.80;71.73
72558;BME280;60583;50.094;8.748;2023-02-11T10:04:22;102468.38;;;5.87;71.27
72558;BME280;60583;50.094;8.748;2023-02-11T10:07:26;102424.78;;;5.68;71.58
72558;BME280;60583;50.094;8.748;2023-02-11T10:12:53;102430.97;;;5.56;71.58
72558;BME280;60583;50.094;8.748;2023-02-11T10:15:41;102463.50;;;6.04;70.95
72558;BME280;60583;50.094;8.748;2023-02-11T10:21:09;102452.19;;;6.58;69.63
72558;BME280;60583;50.094;8.748;2023-02-11T10:23:40;102443.03;;;6.73;68.75
72558;BME280;60583;50.094;8.748;2023-02-11T10:26:15;102448.22;;;6.74;67.97
72558;BME280;60583;50.094;8.748;2023-02-11T10:28:45;102441.97;;;6.53;68.84
72558;BME280;60583;50.094;8.748;2023-02-11T10:31:23;102448.00;;;6.33;69.94
72558;BME280;60583;50.094;8.748;2023-02-11T10:33:59;102466.03;;;6.17;70.42
72558;BME280;60583;50.094;8.748;2023-02-11T10:36:33;102439.44;;;5.96;71.08
72558;BME280;60583;50.094;8.748;2023-02-11T10:39:01;102464.25;;;6.06;70.76
72558;BME280;60583;50.094;8.748;2023-02-11T10:41:38;102441.91;;;5.87;71.13
72558;BME280;60583;50.094;8.748;2023-02-11T10:44:06;102468.09;;;6.13;71.22
72558;BME280;60583;50.094;8.748;2023-02-11T10:46:34;102468.34;;;6.21;70.72
72558;BME280;60583;50.094;8.748;2023-02-11T10:49:01;102445.22;;;6.12;70.82
72558;BME280;60583;50.094;8.748;2023-02-11T10:51:31;102483.50;;;6.19;71.34
72558;BME280;60583;50.094;8.748;2023-02-11T10:56:46;102475.31;;;6.11;72.80
72558;BME280;60583;50.094;8.748;2023-02-11T10:59:26;102470.03;;;6.11;73.19
72558;BME280;60583;50.094;8.748;2023-02-11T11:01:56;102469.31;;;6.20;72.84
72558;BME280;60583;50.094;8.748;2023-02-11T11:04:33;102455.34;;;6.18;72.63
72558;BME280;60583;50.094;8.748;2023-02-11T11:07:18;102431.13;;;6.01;72.40
72558;BME280;60583;50.094;8.748;2023-02-11T11:09:53;102475.44;;;6.10;73.10
72558;BME280;60583;50.094;8.748;2023-02-11T11:12:47;102462.41;;;6.07;72.60
72558;BME280;60583;50.094;8.748;2023-02-11T11:15:16;102469.28;;;6.09;72.75
72558;BME280;60583;50.094;8.748;2023-02-11T11:17:44;102474.34;;;6.12;72.90
72558;BME280;60583;50.094;8.748;2023-02-11T11:20:26;102435.13;;;6.06;72.58
72558;BME280;60583;50.094;8.748;2023-02-11T11:23:15;102477.72;;;6.14;72.96
72558;BME280;60583;50.094;8.748;2023-02-11T11:25:44;102466.78;;;6.19;72.44
72558;BME280;60583;50.094;8.748;2023-02-11T11:28:24;102474.47;;;6.11;73.25
72558;BME280;60583;50.094;8.748;2023-02-11T11:30:51;102470.03;;;6.11;74.42
72558;BME280;60583;50.094;8.748;2023-02-11T11:33:20;102466.16;;;6.15;73.91
72558;BME280;60583;50.094;8.748;2023-02-11T11:36:20;102465.69;;;6.32;72.77
72558;BME280;60583;50.094;8.748;2023-02-11T11:38:57;102449.09;;;6.30;73.13
72558;BME280;60583;50.094;8.748;2023-02-11T11:41:27;102421.16;;;6.26;72.88
72558;BME280;60583;50.094;8.748;2023-02-11T11:43:54;102438.00;;;6.59;72.44
72558;BME280;60583;50.094;8.748;2023-02-11T11:46:27;102444.97;;;6.37;73.10
72558;BME280;60583;50.094;8.748;2023-02-11T11:48:58;102438.59;;;6.40;72.97
72558;BME280;60583;50.094;8.748;2023-02-11T11:51:24;102417.53;;;6.27;73.48
72558;BME280;60583;50.094;8.748;2023-02-11T11:53:57;102363.59;;;6.17;73.26
72558;BME280;60583;50.094;8.748;2023-02-11T11:56:26;102447.66;;;6.49;73.72
72558;BME280;60583;50.094;8.748;2023-02-11T11:58:53;102429.34;;;6.46;74.34
72558;BME280;60583;50.094;8.748;2023-02-11T12:04:09;102434.63;;;6.57;74.12
72558;BME280;60583;50.094;8.748;2023-02-11T12:09:32;102381.97;;;6.52;72.89
72558;BME280;60583;50.094;8.748;2023-02-11T12:12:31;102424.38;;;6.74;72.77
72558;BME280;60583;50.094;8.748;2023-02-11T12:26:21;102423.84;;;7.23;71.30
72558;BME280;60583;50.094;8.748;2023-02-11T12:31:43;102436.94;;;7.36;70.44
72558;BME280;60583;50.094;8.748;2023-02-11T12:34:41;102436.69;;;7.39;70.87
72558;BME280;60583;50.094;8.748;2023-02-11T12:43:56;102434.63;;;7.42;70.21
72558;BME280;60583;50.094;8.748;2023-02-11T12:46:21;102425.94;;;7.20;71.34
72558;BME280;60583;50.094;8.748;2023-02-11T12:49:05;102427.66;;;7.10;71.97
72558;BME280;60583;50.094;8.748;2023-02-11T12:54:53;102418.22;;;7.17;72.22
72558;BME280;60583;50.094;8.748;2023-02-11T12:57:24;102419.81;;;7.08;72.85
72558;BME280;60583;50.094;8.748;2023-02-11T13:00:05;102341.59;;;6.71;73.29
72558;BME280;60583;50.094;8.748;2023-02-11T13:02:55;102410.81;;;7.20;72.91
72558;BME280;60583;50.094;8.748;2023-02-11T13:05:38;102363.38;;;7.06;72.89
72558;BME280;60583;50.094;8.748;2023-02-11T13:08:13;102382.25;;;6.92;73.91
72558;BME280;60583;50.094;8.748;2023-02-11T13:10:41;102378.63;;;6.93;74.04
72558;BME280;60583;50.094;8.748;2023-02-11T13:13:32;102385.47;;;7.06;74.01
72558;BME280;60583;50.094;8.748;2023-02-11T13:16:06;102402.94;;;7.09;74.08
72558;BME280;60583;50.094;8.748;2023-02-11T13:24:18;102391.78;;;7.15;73.84
72558;BME280;60583;50.094;8.748;2023-02-11T13:29:28;102405.34;;;7.12;75.12
72558;BME280;60583;50.094;8.748;2023-02-11T13:32:16;102406.63;;;7.18;74.81
72558;BME280;60583;50.094;8.748;2023-02-11T13:37:25;102391.53;;;7.18;75.02
72558;BME280;60583;50.094;8.748;2023-02-11T13:40:22;102386.78;;;7.12;75.80
72558;BME280;60583;50.094;8.748;2023-02-11T13:42:53;102387.94;;;7.19;75.09
72558;BME280;60583;50.094;8.748;2023-02-11T13:45:43;102388.91;;;7.18;75.59
72558;BME280;60583;50.094;8.748;2023-02-11T13:48:27;102376.88;;;7.14;75.55
72558;BME280;60583;50.094;8.748;2023-02-11T13:51:02;102365.72;;;6.99;75.72
72558;BME280;60583;50.094;8.748;2023-02-11T13:53:30;102374.59;;;7.10;75.66
72558;BME280;60583;50.094;8.748;2023-02-11T13:56:23;102349.34;;;6.94;76.14
72558;BME280;60583;50.094;8.748;2023-02-11T13:58:51;102335.00;;;6.97;76.29
72558;BME280;60583;50.094;8.748;2023-02-11T14:11:05;102371.81;;;7.11;76.46
72558;BME280;60583;50.094;8.748;2023-02-11T14:16:19;102342.97;;;6.86;76.57
72558;BME280;60583;50.094;8.748;2023-02-11T14:27:03;102369.16;;;7.11;76.28
72558;BME280;60583;50.094;8.748;2023-02-11T14:35:43;102392.78;;;7.14;77.32
72558;BME280;60583;50.094;8.748;2023-02-11T14:38:25;102411.03;;;7.28;77.08
72558;BME280;60583;50.094;8.748;2023-02-11T14:43:41;102401.88;;;7.32;76.80
72558;BME280;60583;50.094;8.748;2023-02-11T14:46:09;102400.50;;;7.38;77.13
72558;BME280;60583;50.094;8.748;2023-02-11T14:48:36;102403.16;;;7.38;76.76
72558;BME280;60583;50.094;8.748;2023-02-11T14:51:23;102409.84;;;7.32;78.14
72558;BME280;60583;50.094;8.748;2023-02-11T14:54:16;102404.25;;;7.35;76.86